Hodgson, Texas
Current Conditions -  °F | °C
As of 2:55 PM on Tuesday 21 Oct 2014 (Local Time) from KOSA Reporting Station
Scattered Clouds Scattered Clouds  
Wind Chill: 78°   Ceiling: Unl
Heat Index: 80°   Visibility: 10mi
Dew Point: 59°   Wind: 3mph
Humidity: 51%   Direction: 30°NNE
Pressure: 30.07"   Gusts: NA
Location:  33.4703°N, 94.6281°W
Report Text: KOSA 211955Z AUTO 03003KT 10SM SCT040 26/15 A3007 RMK AO1 T02580149
Loading
Personal Weather Stations






























Interactive Weather Map
Tropical Storm Tracking
New forecast layout! Learn more

10-Day Weather Forecast

Advertisements
Track Severe Weather on mobile